Time;durP1;ratioP1;P1;durP2;ratioP2;P2;SDS_P1;SDS_P2;PMS_P1;PMS_P2;Temp;Humidity;BMP_temperature;BMP_pressure;BME280_temperature;BME280_humidity;BME280_pressure;Samples;Min_cycle;Max_cycle;Signal;HPM_P1;HPM_P2
2023/11/17 00:00:11;;;;;;;9.07;6.90;;;3.00;99.90;;;;;;5015812;28;20439;-79
2023/11/17 00:02:40;;;;;;;8.07;7.20;;;3.00;99.90;;;;;;5017050;28;21022;-80
2023/11/17 00:05:10;;;;;;;8.77;7.83;;;3.00;99.90;;;;;;5020245;28;20450;-79
2023/11/17 00:07:38;;;;;;;9.13;7.00;;;3.00;99.90;;;;;;5020138;28;20836;-79
2023/11/17 00:10:10;;;;;;;8.03;6.63;;;3.00;99.90;;;;;;5020228;28;20497;-80
2023/11/17 00:12:41;;;;;;;7.00;6.30;;;3.00;99.90;;;;;;5021992;28;20428;-79
2023/11/17 00:15:12;;;;;;;8.27;6.80;;;2.90;99.90;;;;;;5020238;28;20979;-80
2023/11/17 00:17:40;;;;;;;7.07;6.23;;;2.90;99.90;;;;;;5021827;28;20895;-80
2023/11/17 00:20:09;;;;;;;7.63;6.90;;;2.90;99.90;;;;;;5019987;28;20477;-79
2023/11/17 00:22:37;;;;;;;7.73;6.93;;;2.90;99.90;;;;;;5019828;28;20525;-79
2023/11/17 00:25:05;;;;;;;7.43;6.53;;;2.90;99.90;;;;;;5020132;28;20451;-79
2023/11/17 00:27:37;;;;;;;9.33;7.00;;;2.90;99.90;;;;;;5020206;28;20459;-80
2023/11/17 00:30:07;;;;;;;9.23;7.50;;;2.90;99.90;;;;;;5019901;28;20452;-79
2023/11/17 00:32:36;;;;;;;7.87;6.70;;;2.90;99.90;;;;;;5019919;28;20490;-79
2023/11/17 00:35:06;;;;;;;7.30;6.10;;;2.80;99.90;;;;;;5019742;28;20451;-79
2023/11/17 00:37:37;;;;;;;8.07;6.37;;;2.80;99.90;;;;;;5020524;28;20447;-79
2023/11/17 00:40:10;;;;;;;8.77;6.80;;;2.80;99.90;;;;;;5019859;28;20459;-79
2023/11/17 00:42:39;;;;;;;7.47;6.70;;;2.80;99.90;;;;;;5019237;28;20471;-79
2023/11/17 00:45:09;;;;;;;11.10;6.63;;;2.80;99.90;;;;;;5019668;28;20470;-79
2023/11/17 00:47:38;;;;;;;7.53;6.70;;;2.80;99.90;;;;;;5019984;28;20454;-80
2023/11/17 00:50:11;;;;;;;8.10;6.50;;;2.80;99.90;;;;;;5019925;28;20444;-79
2023/11/17 00:52:41;;;;;;;6.87;5.67;;;2.70;99.90;;;;;;5019093;28;20432;-79
2023/11/17 00:55:11;;;;;;;7.60;6.80;;;2.70;99.90;;;;;;5020849;28;20808;-79
2023/11/17 00:57:42;;;;;;;7.97;6.77;;;2.70;99.90;;;;;;5020690;28;20865;-79
2023/11/17 01:00:12;;;;;;;7.65;6.20;;;2.70;99.90;;;;;;5018060;28;20497;-79
2023/11/17 01:02:41;;;;;;;8.50;7.10;;;2.70;99.90;;;;;;5018988;28;20213;-79
2023/11/17 01:05:10;;;;;;;6.47;5.83;;;2.70;99.90;;;;;;5020657;28;20439;-79
2023/11/17 01:07:38;;;;;;;7.53;6.20;;;2.70;99.90;;;;;;5019877;28;20455;-80
2023/11/17 01:10:08;;;;;;;8.03;6.53;;;2.70;99.90;;;;;;5019654;28;20466;-79
2023/11/17 01:12:37;;;;;;;7.00;6.30;;;2.70;99.90;;;;;;5018856;28;20539;-79
2023/11/17 01:15:08;;;;;;;7.00;5.60;;;2.70;99.90;;;;;;5017967;28;20455;-79
2023/11/17 01:17:37;;;;;;;6.47;5.60;;;2.60;99.90;;;;;;5018690;28;20558;-79
2023/11/17 01:20:09;;;;;;;6.33;5.23;;;2.60;99.90;;;;;;5020345;28;20874;-79
2023/11/17 01:22:37;;;;;;;6.60;5.50;;;2.60;99.90;;;;;;5019058;28;20470;-79
2023/11/17 01:25:06;;;;;;;7.30;5.90;;;2.60;99.90;;;;;;5018859;28;20494;-80
2023/11/17 01:27:34;;;;;;;7.03;5.87;;;2.60;99.90;;;;;;5019220;28;20459;-79
2023/11/17 01:30:04;;;;;;;8.30;5.30;;;2.60;99.90;;;;;;5018524;28;20452;-79
2023/11/17 01:32:34;;;;;;;6.43;5.53;;;2.60;99.90;;;;;;5020531;28;20468;-80
2023/11/17 01:35:03;;;;;;;7.97;5.87;;;2.60;99.90;;;;;;5018953;28;20561;-80
2023/11/17 01:37:32;;;;;;;7.27;6.17;;;2.60;99.90;;;;;;5018490;28;20459;-80
2023/11/17 01:40:00;;;;;;;7.40;5.80;;;2.60;99.90;;;;;;5018586;28;20543;-79
2023/11/17 01:42:33;;;;;;;7.23;6.20;;;2.60;99.90;;;;;;5019313;28;20605;-79
2023/11/17 01:45:01;;;;;;;6.60;5.20;;;2.60;99.90;;;;;;5018329;28;20443;-79
2023/11/17 01:47:30;;;;;;;8.00;5.97;;;2.70;99.90;;;;;;5018405;28;20459;-80
2023/11/17 01:50:00;;;;;;;6.73;6.03;;;2.70;99.90;;;;;;5020045;28;21025;-79
2023/11/17 01:52:30;;;;;;;8.67;6.40;;;2.70;99.90;;;;;;5018441;28;20451;-80
2023/11/17 01:54:59;;;;;;;7.37;6.53;;;2.70;99.90;;;;;;5019513;28;20484;-80
2023/11/17 01:57:30;;;;;;;9.67;7.13;;;2.70;99.90;;;;;;5017848;28;20451;-79
2023/11/17 01:59:58;;;;;;;8.23;6.57;;;2.70;99.90;;;;;;5018803;28;20454;-80
2023/11/17 02:02:27;;;;;;;8.90;7.17;;;2.70;99.90;;;;;;5019552;28;20593;-79
2023/11/17 02:04:56;;;;;;;9.97;8.10;;;2.70;99.90;;;;;;5019019;28;20797;-79
2023/11/17 02:07:30;;;;;;;10.67;7.53;;;2.70;99.90;;;;;;5019676;28;20440;-80
2023/11/17 02:10:07;;;;;;;9.03;8.13;;;2.70;99.90;;;;;;5018220;28;20440;-79
2023/11/17 02:12:47;;;;;;;8.80;7.53;;;2.70;99.90;;;;;;5018174;28;20939;-80
2023/11/17 02:15:18;;;;;;;9.73;7.53;;;2.70;99.90;;;;;;5017946;28;20886;-80
2023/11/17 02:17:49;;;;;;;9.70;8.27;;;2.80;99.90;;;;;;5017604;28;20483;-79
2023/11/17 02:20:20;;;;;;;9.33;8.33;;;2.70;99.90;;;;;;5017827;28;20443;-79
2023/11/17 02:22:53;;;;;;;9.67;7.73;;;2.70;99.90;;;;;;5018023;28;20465;-79
2023/11/17 02:25:28;;;;;;;9.33;7.53;;;2.70;99.90;;;;;;5017724;28;20518;-79
2023/11/17 02:28:07;;;;;;;9.10;8.20;;;2.70;99.90;;;;;;5017203;28;20455;-79
2023/11/17 02:30:39;;;;;;;11.53;7.77;;;2.70;99.90;;;;;;5017346;28;20503;-79
2023/11/17 02:33:08;;;;;;;8.83;7.83;;;2.70;99.90;;;;;;5017176;28;20479;-79
2023/11/17 02:35:37;;;;;;;9.27;8.33;;;2.70;99.90;;;;;;5017316;28;20462;-80
2023/11/17 02:38:06;;;;;;;9.20;8.30;;;2.70;99.90;;;;;;5017252;28;20459;-79
2023/11/17 02:40:37;;;;;;;10.03;8.50;;;2.70;99.90;;;;;;5016448;28;20480;-80
2023/11/17 02:43:07;;;;;;;11.93;7.80;;;2.80;99.90;;;;;;5017109;28;20505;-79
2023/11/17 02:45:37;;;;;;;8.53;7.73;;;2.70;99.90;;;;;;5016739;28;20462;-79
2023/11/17 02:48:05;;;;;;;10.53;9.43;;;2.70;99.90;;;;;;5016459;28;20514;-79
2023/11/17 02:51:17;;;;;;;8.70;7.80;;;2.70;99.90;;;;;;5016605;28;20534;-79
2023/11/17 02:53:42;;;;;;;8.40;7.60;;;2.70;99.90;;;;;;5016462;28;20489;-80
2023/11/17 02:56:10;;;;;;;8.13;7.43;;;2.70;99.90;;;;;;5016701;28;21055;-79
2023/11/17 02:58:39;;;;;;;10.47;8.80;;;2.70;99.90;;;;;;5016192;28;20503;-79
2023/11/17 03:01:08;;;;;;;8.73;7.83;;;2.70;99.90;;;;;;5017763;28;20499;-80
2023/11/17 03:03:37;;;;;;;9.03;8.13;;;2.70;99.90;;;;;;5016160;28;20516;-79
2023/11/17 03:06:06;;;;;;;9.17;8.20;;;2.70;99.90;;;;;;5016054;28;20953;-79
2023/11/17 03:08:35;;;;;;;10.37;9.00;;;2.70;99.90;;;;;;5015971;28;20475;-80
2023/11/17 03:11:04;;;;;;;9.17;8.27;;;2.70;99.90;;;;;;5015377;28;20509;-79
2023/11/17 03:13:33;;;;;;;9.53;8.40;;;2.70;99.90;;;;;;5015505;28;20509;-79
2023/11/17 03:16:01;;;;;;;8.80;7.90;;;2.90;99.90;;;;;;5015270;28;20458;-79
2023/11/17 03:18:38;;;;;;;10.50;9.50;;;2.70;99.90;;;;;;5015871;28;20451;-80
2023/11/17 03:21:07;;;;;;;9.10;8.27;;;2.70;99.90;;;;;;5015499;28;20812;-79
2023/11/17 03:23:39;;;;;;;9.43;8.43;;;2.70;99.90;;;;;;5015514;28;20569;-79
2023/11/17 03:26:11;;;;;;;10.03;8.93;;;2.70;99.90;;;;;;5016176;28;20820;-80
2023/11/17 03:28:39;;;;;;;10.97;8.90;;;2.70;99.90;;;;;;5015515;28;20777;-80
2023/11/17 03:31:07;;;;;;;10.17;8.57;;;2.70;99.90;;;;;;5014825;28;20475;-79
2023/11/17 03:33:38;;;;;;;10.43;9.10;;;2.60;99.90;;;;;;5017332;28;20475;-80
2023/11/17 03:36:07;;;;;;;9.80;8.90;;;2.70;99.90;;;;;;5015363;28;20444;-80
2023/11/17 03:38:35;;;;;;;9.83;8.83;;;2.70;99.90;;;;;;5015039;28;20446;-79
2023/11/17 03:41:04;;;;;;;9.47;8.27;;;2.70;99.90;;;;;;5015016;28;20483;-80
2023/11/17 03:43:32;;;;;;;8.83;8.03;;;2.70;99.90;;;;;;5015360;28;20499;-79
2023/11/17 03:46:00;;;;;;;9.10;7.87;;;2.80;99.90;;;;;;5017363;28;20467;-80
2023/11/17 03:48:28;;;;;;;9.53;8.53;;;2.70;99.90;;;;;;5017068;28;20457;-80
2023/11/17 03:50:59;;;;;;;11.60;9.03;;;2.70;99.90;;;;;;5015667;28;20558;-80
2023/11/17 03:53:27;;;;;;;11.13;8.93;;;2.80;99.90;;;;;;5015494;28;20444;-79
2023/11/17 03:55:55;;;;;;;9.23;8.13;;;2.80;99.90;;;;;;5015121;28;20444;-79
2023/11/17 03:58:24;;;;;;;11.03;8.77;;;2.80;99.90;;;;;;5016091;28;20497;-80
2023/11/17 04:00:52;;;;;;;9.37;8.47;;;2.80;99.90;;;;;;5016035;28;20555;-79
2023/11/17 04:03:22;;;;;;;8.93;8.00;;;2.80;99.90;;;;;;5017397;28;20491;-80
2023/11/17 04:05:50;;;;;;;8.90;8.00;;;2.90;99.90;;;;;;5015880;28;20452;-80
2023/11/17 04:08:20;;;;;;;9.07;8.17;;;2.90;99.90;;;;;;5015747;28;20459;-80
2023/11/17 04:10:49;;;;;;;9.80;8.80;;;2.90;99.90;;;;;;5015833;28;20495;-79
2023/11/17 04:13:17;;;;;;;9.23;8.23;;;2.90;99.90;;;;;;5016624;28;20447;-79
2023/11/17 04:15:45;;;;;;;10.10;8.57;;;2.90;99.90;;;;;;5015927;28;20482;-80
2023/11/17 04:18:14;;;;;;;10.63;8.43;;;2.90;99.90;;;;;;5015735;28;20494;-80
2023/11/17 04:20:43;;;;;;;8.50;7.70;;;3.00;99.90;;;;;;5015533;28;21004;-79
2023/11/17 04:23:12;;;;;;;10.40;8.00;;;3.00;99.90;;;;;;5015090;28;20465;-80
2023/11/17 04:25:41;;;;;;;10.73;8.40;;;3.00;99.90;;;;;;5015362;28;20448;-80
2023/11/17 04:28:09;;;;;;;10.67;7.77;;;3.00;99.90;;;;;;5015788;28;20542;-80
2023/11/17 04:30:37;;;;;;;8.37;7.57;;;3.10;99.90;;;;;;5015001;28;20895;-79
2023/11/17 04:33:06;;;;;;;9.13;7.93;;;3.00;99.90;;;;;;5015126;28;20512;-79
2023/11/17 04:35:34;;;;;;;7.03;6.37;;;3.10;99.90;;;;;;5016049;28;20502;-79
2023/11/17 04:38:02;;;;;;;6.93;6.23;;;3.10;99.90;;;;;;5014790;28;20440;-79
2023/11/17 04:40:31;;;;;;;10.60;7.80;;;3.20;99.90;;;;;;5015306;28;20483;-79
2023/11/17 04:43:02;;;;;;;8.40;7.37;;;3.20;99.90;;;;;;5016821;28;20498;-79
2023/11/17 04:45:35;;;;;;;7.80;7.00;;;3.30;99.90;;;;;;5016625;28;20463;-80
2023/11/17 04:48:05;;;;;;;8.90;8.10;;;3.30;99.90;;;;;;5015310;28;20450;-79
2023/11/17 04:50:33;;;;;;;8.57;7.37;;;3.30;99.90;;;;;;5018999;28;20525;-79
2023/11/17 04:53:01;;;;;;;8.43;7.10;;;3.30;99.90;;;;;;5021355;28;20454;-79
2023/11/17 04:55:29;;;;;;;8.47;7.77;;;3.40;99.90;;;;;;5021233;28;20454;-79
2023/11/17 04:57:57;;;;;;;8.03;7.27;;;3.40;99.90;;;;;;5022585;28;20882;-79
2023/11/17 05:00:27;;;;;;;7.87;7.07;;;3.40;99.90;;;;;;5022433;28;20468;-79
2023/11/17 05:02:55;;;;;;;8.80;7.27;;;3.50;99.90;;;;;;5021552;28;20514;-79
2023/11/17 05:05:24;;;;;;;8.50;7.70;;;3.50;99.90;;;;;;5022429;28;20546;-79
2023/11/17 05:07:56;;;;;;;8.10;7.30;;;3.50;99.90;;;;;;5022611;28;20447;-79
2023/11/17 05:10:26;;;;;;;7.90;7.10;;;3.50;99.90;;;;;;5020926;28;20510;-79
2023/11/17 05:12:54;;;;;;;8.13;7.33;;;3.50;99.90;;;;;;5020980;28;20443;-79
2023/11/17 05:15:23;;;;;;;19.13;8.37;;;3.60;99.90;;;;;;5022089;28;20432;-79
2023/11/17 05:17:53;;;;;;;8.70;7.90;;;3.60;99.90;;;;;;5020983;28;20873;-79
2023/11/17 05:20:22;;;;;;;9.93;7.87;;;3.60;99.90;;;;;;5020138;28;20833;-79
2023/11/17 05:22:52;;;;;;;7.90;7.10;;;3.70;99.90;;;;;;5021571;28;20434;-79
2023/11/17 05:25:20;;;;;;;9.00;8.20;;;3.70;99.90;;;;;;5019797;28;20999;-79
2023/11/17 05:27:49;;;;;;;8.60;7.80;;;3.70;99.90;;;;;;5019956;28;20443;-79
2023/11/17 05:30:18;;;;;;;8.10;7.30;;;3.60;99.90;;;;;;5019860;28;20510;-79
2023/11/17 05:32:48;;;;;;;8.90;8.00;;;3.70;99.90;;;;;;5019653;28;20454;-79
2023/11/17 05:35:18;;;;;;;8.17;7.43;;;3.70;99.90;;;;;;5019484;28;20447;-79
2023/11/17 05:37:46;;;;;;;7.97;7.27;;;3.80;99.90;;;;;;5019123;28;20443;-79
2023/11/17 05:40:14;;;;;;;7.60;6.60;;;3.80;99.90;;;;;;5018739;28;20460;-79
2023/11/17 05:42:43;;;;;;;8.10;7.40;;;3.80;99.90;;;;;;5020597;28;20440;-79
2023/11/17 05:45:12;;;;;;;8.07;7.27;;;3.90;99.90;;;;;;5019312;28;20483;-79
2023/11/17 05:47:41;;;;;;;7.43;6.70;;;3.80;99.90;;;;;;5018973;28;20524;-79
2023/11/17 05:50:11;;;;;;;7.77;6.87;;;3.90;99.90;;;;;;5019335;28;20486;-79
2023/11/17 05:52:43;;;;;;;7.93;7.13;;;3.90;99.90;;;;;;5018381;28;20479;-79
2023/11/17 05:55:16;;;;;;;7.07;6.40;;;3.90;99.90;;;;;;5018677;28;20901;-79
2023/11/17 05:57:45;;;;;;;8.40;7.60;;;4.00;99.90;;;;;;5018703;28;20443;-79
2023/11/17 06:00:18;;;;;;;7.90;6.37;;;4.00;99.90;;;;;;5018454;28;20463;-79
2023/11/17 06:02:46;;;;;;;7.17;6.47;;;4.00;99.90;;;;;;5019315;28;20979;-79
2023/11/17 06:05:15;;;;;;;7.27;6.57;;;4.10;99.90;;;;;;5018687;28;21087;-79
2023/11/17 06:07:44;;;;;;;7.10;6.40;;;4.10;99.90;;;;;;5019818;28;20432;-79
2023/11/17 06:10:13;;;;;;;7.97;7.13;;;4.10;99.90;;;;;;5018524;28;20476;-79
2023/11/17 06:12:41;;;;;;;8.10;6.50;;;4.20;99.90;;;;;;5018580;28;20494;-79
2023/11/17 06:15:11;;;;;;;7.50;6.80;;;4.20;99.90;;;;;;5017916;28;20459;-79
2023/11/17 06:17:39;;;;;;;6.83;6.27;;;4.20;99.90;;;;;;5019586;28;20976;-79
2023/11/17 06:20:09;;;;;;;7.40;6.13;;;4.20;99.90;;;;;;5018829;28;20621;-79
2023/11/17 06:22:37;;;;;;;9.10;8.20;;;4.20;99.90;;;;;;5017833;28;20515;-79
2023/11/17 06:25:08;;;;;;;8.93;8.10;;;4.30;99.90;;;;;;5017263;28;20494;-78
2023/11/17 06:27:38;;;;;;;7.47;6.60;;;4.30;99.90;;;;;;5017322;28;20545;-77
2023/11/17 06:30:07;;;;;;;8.23;7.50;;;4.30;99.90;;;;;;5015890;28;20443;-81
2023/11/17 06:32:36;;;;;;;8.40;7.60;;;4.30;99.90;;;;;;5015913;28;20456;-80
2023/11/17 06:35:06;;;;;;;7.60;6.90;;;4.30;99.90;;;;;;5015637;28;20448;-81
2023/11/17 06:37:34;;;;;;;8.93;7.50;;;4.30;99.90;;;;;;5016384;28;20499;-81
2023/11/17 06:40:06;;;;;;;10.70;7.43;;;4.30;99.90;;;;;;5017087;28;20983;-81
2023/11/17 06:42:36;;;;;;;8.10;7.40;;;4.30;99.90;;;;;;5015834;28;20853;-81
2023/11/17 06:45:05;;;;;;;9.07;8.27;;;4.40;99.90;;;;;;5015387;28;20845;-80
2023/11/17 06:47:33;;;;;;;8.73;7.90;;;4.40;99.90;;;;;;5015273;28;20439;-81
2023/11/17 06:50:04;;;;;;;9.80;8.33;;;4.40;99.90;;;;;;5016747;28;20432;-80
2023/11/17 06:52:32;;;;;;;7.63;6.73;;;4.40;99.90;;;;;;5015529;28;20506;-80
2023/11/17 06:55:01;;;;;;;9.20;8.37;;;4.40;99.90;;;;;;5015133;28;20443;-80
2023/11/17 06:57:33;;;;;;;9.60;8.10;;;4.40;99.90;;;;;;5016360;28;20416;-80
2023/11/17 07:00:07;;;;;;;8.80;8.00;;;4.40;99.90;;;;;;5015006;28;20463;-80
2023/11/17 07:02:36;;;;;;;9.23;8.43;;;4.40;99.90;;;;;;5015244;28;20466;-80
2023/11/17 07:05:07;;;;;;;9.00;8.10;;;4.40;99.90;;;;;;5015089;28;20518;-81
2023/11/17 07:07:35;;;;;;;9.10;8.30;;;4.40;99.90;;;;;;5015311;28;20440;-81
2023/11/17 07:10:07;;;;;;;8.30;7.50;;;4.40;99.90;;;;;;5015140;28;20447;-81
2023/11/17 07:12:38;;;;;;;10.70;8.27;;;4.40;99.90;;;;;;5015555;28;20475;-80
2023/11/17 07:15:11;;;;;;;10.97;8.70;;;4.40;99.90;;;;;;5014722;28;20445;-80
2023/11/17 07:17:42;;;;;;;9.40;8.60;;;4.50;99.90;;;;;;5014651;28;20447;-81
2023/11/17 07:20:12;;;;;;;9.00;8.07;;;4.40;99.90;;;;;;5016405;28;20428;-81
2023/11/17 07:22:41;;;;;;;9.90;9.00;;;4.40;99.90;;;;;;5014999;28;20448;-80
2023/11/17 07:25:10;;;;;;;9.50;8.60;;;4.40;99.90;;;;;;5014639;28;20467;-81
2023/11/17 07:27:40;;;;;;;10.60;9.70;;;4.40;99.90;;;;;;5014492;28;20444;-80
2023/11/17 07:30:12;;;;;;;8.50;7.70;;;4.40;99.90;;;;;;5015619;28;20555;-81
2023/11/17 07:32:41;;;;;;;9.93;8.70;;;4.40;99.90;;;;;;5014550;28;20465;-80
2023/11/17 07:35:11;;;;;;;10.53;9.63;;;4.40;99.90;;;;;;5014478;28;20460;-81
2023/11/17 07:37:40;;;;;;;9.60;8.73;;;4.40;99.90;;;;;;5014889;28;20490;-81
2023/11/17 07:40:09;;;;;;;9.30;8.40;;;4.50;99.90;;;;;;5014455;28;20456;-81
2023/11/17 07:42:39;;;;;;;8.60;7.80;;;4.40;99.90;;;;;;5014120;28;20455;-81
2023/11/17 07:45:11;;;;;;;10.87;9.53;;;4.30;99.90;;;;;;5015499;28;20444;-80
2023/11/17 07:47:41;;;;;;;9.27;8.37;;;4.40;99.90;;;;;;5015819;28;20514;-81
2023/11/17 07:50:13;;;;;;;8.90;8.10;;;4.30;99.90;;;;;;5015262;28;20462;-80
2023/11/17 07:52:44;;;;;;;9.33;8.33;;;4.30;99.90;;;;;;5014388;28;20555;-81
2023/11/17 07:55:14;;;;;;;9.40;7.77;;;4.30;99.90;;;;;;5014367;28;20972;-81
2023/11/17 07:57:43;;;;;;;7.57;6.83;;;4.30;99.90;;;;;;5014238;28;20447;-81
2023/11/17 08:00:18;;;;;;;8.83;7.90;;;4.30;99.90;;;;;;5013804;28;20451;-80
2023/11/17 08:02:46;;;;;;;9.63;8.73;;;4.30;99.90;;;;;;5014277;28;20503;-80
2023/11/17 08:05:15;;;;;;;8.80;8.00;;;4.30;99.90;;;;;;5014290;28;20459;-81
2023/11/17 08:07:45;;;;;;;8.60;7.63;;;4.40;99.90;;;;;;5014291;28;20511;-80
2023/11/17 08:10:14;;;;;;;7.50;6.90;;;4.40;99.90;;;;;;5014647;28;20979;-80
2023/11/17 08:12:46;;;;;;;9.23;8.07;;;4.40;99.90;;;;;;5014655;28;20487;-81
2023/11/17 08:15:17;;;;;;;8.57;7.67;;;4.50;99.90;;;;;;5014262;28;20440;-80
2023/11/17 08:17:47;;;;;;;8.70;7.80;;;4.50;99.90;;;;;;5014095;28;20979;-81
2023/11/17 08:20:16;;;;;;;9.67;8.77;;;4.60;99.90;;;;;;5014408;28;20444;-81
2023/11/17 08:22:46;;;;;;;8.80;8.00;;;4.60;99.90;;;;;;5014000;28;20956;-81
2023/11/17 08:25:15;;;;;;;9.70;8.80;;;4.70;99.90;;;;;;5016978;28;20460;-80
2023/11/17 08:27:44;;;;;;;9.47;7.63;;;4.70;99.90;;;;;;5017743;28;20565;-80
2023/11/17 08:30:13;;;;;;;8.30;7.60;;;4.80;99.90;;;;;;5017407;28;20486;-80
2023/11/17 08:32:42;;;;;;;8.80;8.00;;;4.80;99.90;;;;;;5017819;28;20945;-80
2023/11/17 08:35:12;;;;;;;8.27;7.50;;;4.90;99.90;;;;;;5018178;28;20523;-80
2023/11/17 08:37:44;;;;;;;8.77;7.87;;;4.90;99.90;;;;;;5017947;28;20444;-80
2023/11/17 08:40:18;;;;;;;8.43;7.60;;;5.00;99.90;;;;;;5017241;28;20554;-80
2023/11/17 08:42:47;;;;;;;8.70;7.87;;;5.00;99.90;;;;;;5017950;28;20440;-80
2023/11/17 08:45:16;;;;;;;8.40;7.60;;;5.00;99.90;;;;;;5017861;28;20443;-80
2023/11/17 08:47:48;;;;;;;8.90;8.00;;;5.10;99.90;;;;;;5017421;28;20976;-80
2023/11/17 08:50:17;;;;;;;7.70;7.00;;;5.10;99.90;;;;;;5018514;28;20428;-80
2023/11/17 08:52:47;;;;;;;8.73;7.90;;;5.10;99.90;;;;;;5017667;28;20988;-80
2023/11/17 08:55:17;;;;;;;8.77;7.87;;;5.10;99.90;;;;;;5017910;28;20447;-80
2023/11/17 08:57:46;;;;;;;8.10;7.40;;;5.20;99.90;;;;;;5017459;28;20469;-80
2023/11/17 09:00:18;;;;;;;8.60;7.80;;;5.20;99.90;;;;;;5018600;28;20440;-80
2023/11/17 09:02:49;;;;;;;9.17;8.37;;;5.30;99.90;;;;;;5017479;28;20444;-81
2023/11/17 09:05:19;;;;;;;8.47;7.77;;;5.30;99.90;;;;;;5017706;28;20451;-80
2023/11/17 09:07:49;;;;;;;8.63;7.90;;;5.40;99.90;;;;;;5017958;28;21044;-81
2023/11/17 09:10:20;;;;;;;8.70;7.90;;;5.50;99.90;;;;;;5017061;28;20496;-80
2023/11/17 09:12:49;;;;;;;7.97;7.20;;;5.50;99.90;;;;;;5017341;28;20494;-80
2023/11/17 09:15:20;;;;;;;9.20;8.40;;;5.50;99.90;;;;;;5017383;28;20452;-80
2023/11/17 09:17:51;;;;;;;8.70;7.80;;;5.60;99.90;;;;;;5019188;28;20451;-81
2023/11/17 09:20:23;;;;;;;7.63;6.93;;;5.60;99.90;;;;;;5018255;28;20502;-80
2023/11/17 09:22:52;;;;;;;8.37;7.67;;;5.70;99.90;;;;;;5017925;28;20455;-80
2023/11/17 09:25:24;;;;;;;8.57;7.87;;;5.80;99.90;;;;;;5000640;28;20452;-80
2023/11/17 09:27:54;;;;;;;7.77;7.07;;;5.70;99.90;;;;;;5018395;28;20554;-81
2023/11/17 09:30:22;;;;;;;8.43;7.63;;;5.80;99.90;;;;;;5017011;28;20841;-80
2023/11/17 09:32:54;;;;;;;8.23;7.57;;;5.80;99.90;;;;;;5016887;28;20456;-80
2023/11/17 09:35:25;;;;;;;8.50;7.60;;;5.80;99.90;;;;;;5015291;28;20433;-80
2023/11/17 09:37:55;;;;;;;8.77;7.97;;;5.90;99.90;;;;;;5017526;28;20452;-81
2023/11/17 09:40:25;;;;;;;7.20;6.50;;;5.80;99.90;;;;;;5017366;28;20487;-80
2023/11/17 09:42:55;;;;;;;8.37;7.67;;;6.00;99.90;;;;;;5017151;28;20491;-80
2023/11/17 09:45:25;;;;;;;8.40;7.60;;;6.00;99.90;;;;;;5018744;28;20440;-81
2023/11/17 09:47:57;;;;;;;8.80;7.77;;;6.00;99.90;;;;;;5017788;28;20967;-81
2023/11/17 09:50:30;;;;;;;7.43;6.83;;;6.10;99.90;;;;;;5017559;28;20555;-81
2023/11/17 09:53:00;;;;;;;7.90;7.20;;;6.10;99.90;;;;;;5016820;28;20453;-80
2023/11/17 09:55:30;;;;;;;7.97;7.27;;;6.10;99.90;;;;;;5016556;28;20448;-81
2023/11/17 09:58:02;;;;;;;8.13;7.43;;;6.10;99.90;;;;;;5017162;28;20463;-80
2023/11/17 10:00:33;;;;;;;8.27;7.53;;;6.20;99.90;;;;;;5016923;28;20482;-81
2023/11/17 10:03:03;;;;;;;8.10;7.43;;;6.20;99.90;;;;;;5017026;28;20445;-81
2023/11/17 10:05:33;;;;;;;8.40;7.70;;;6.30;99.90;;;;;;5018117;28;20432;-81
2023/11/17 10:08:05;;;;;;;8.20;7.50;;;6.30;99.90;;;;;;5016827;28;20471;-81
2023/11/17 10:10:36;;;;;;;7.87;7.20;;;6.30;99.90;;;;;;5016822;28;20495;-81
2023/11/17 10:13:10;;;;;;;7.53;6.87;;;6.40;99.90;;;;;;5017800;28;20456;-81
2023/11/17 10:15:41;;;;;;;7.37;6.77;;;6.40;99.90;;;;;;5016586;28;20447;-81
2023/11/17 10:18:17;;;;;;;8.17;7.57;;;6.40;99.90;;;;;;5016823;28;20468;-81
2023/11/17 10:20:48;;;;;;;9.03;8.33;;;6.50;99.90;;;;;;5016378;28;20570;-81
2023/11/17 10:23:16;;;;;;;7.97;7.27;;;6.50;99.90;;;;;;5019921;28;20417;-80
2023/11/17 10:25:45;;;;;;;8.30;7.60;;;6.60;99.90;;;;;;5020809;28;20450;-80
2023/11/17 10:28:15;;;;;;;8.40;7.60;;;6.60;99.90;;;;;;5020199;28;20474;-80
2023/11/17 10:30:46;;;;;;;7.70;7.00;;;6.60;99.90;;;;;;5019709;28;20459;-80
2023/11/17 10:33:26;;;;;;;8.77;8.10;;;6.70;99.90;;;;;;5019815;28;20443;-81
2023/11/17 10:36:04;;;;;;;7.27;6.70;;;6.70;99.90;;;;;;5018892;28;20437;-81
2023/11/17 10:38:34;;;;;;;8.30;7.63;;;6.70;99.90;;;;;;5017622;28;20449;-81
2023/11/17 10:41:17;;;;;;;8.60;7.80;;;6.80;99.90;;;;;;5018822;28;20487;-81
2023/11/17 10:43:50;;;;;;;8.03;7.33;;;6.80;99.90;;;;;;5018217;28;20520;-80
2023/11/17 10:46:21;;;;;;;8.90;8.00;;;6.90;99.90;;;;;;5017244;28;20446;-81
2023/11/17 10:48:52;;;;;;;10.93;8.10;;;6.90;99.90;;;;;;5018423;28;20469;-81
2023/11/17 10:51:21;;;;;;;7.87;7.20;;;6.90;99.90;;;;;;5017663;28;20837;-81
2023/11/17 10:54:03;;;;;;;9.10;8.30;;;6.90;99.90;;;;;;5017089;28;20854;-80
2023/11/17 10:56:32;;;;;;;8.57;7.40;;;7.00;99.90;;;;;;5016576;28;20457;-80
2023/11/17 10:59:02;;;;;;;8.80;7.57;;;7.00;99.90;;;;;;5017809;28;20473;-81
2023/11/17 11:01:31;;;;;;;7.70;7.00;;;7.10;99.90;;;;;;5016403;28;20474;-81
2023/11/17 11:04:02;;;;;;;8.17;7.50;;;7.10;99.90;;;;;;5017932;28;20430;-81
2023/11/17 11:06:32;;;;;;;7.70;7.00;;;7.10;99.90;;;;;;5016823;28;20929;-80
2023/11/17 11:09:02;;;;;;;8.17;7.27;;;7.20;99.90;;;;;;5016442;28;20566;-81
2023/11/17 11:11:32;;;;;;;7.43;6.73;;;7.20;99.90;;;;;;5016662;28;20527;-81
2023/11/17 11:14:01;;;;;;;8.57;7.77;;;7.20;99.90;;;;;;5016668;28;20454;-80
2023/11/17 11:16:32;;;;;;;7.33;6.63;;;7.30;99.90;;;;;;5017102;28;20455;-80
2023/11/17 11:19:03;;;;;;;7.87;7.10;;;7.30;99.90;;;;;;5018210;28;20476;-80
2023/11/17 11:21:33;;;;;;;6.73;6.23;;;7.40;99.90;;;;;;5018643;28;20470;-81
2023/11/17 11:24:04;;;;;;;7.83;7.13;;;7.40;99.90;;;;;;5018037;28;20455;-81
2023/11/17 11:26:35;;;;;;;6.30;5.70;;;7.40;99.90;;;;;;5017256;28;20459;-81
2023/11/17 11:29:06;;;;;;;6.67;6.07;;;7.40;99.90;;;;;;5016479;28;20481;-81
2023/11/17 11:31:37;;;;;;;6.13;5.63;;;7.40;99.90;;;;;;5016470;28;20486;-81
2023/11/17 11:34:08;;;;;;;6.40;5.80;;;7.50;99.90;;;;;;5016895;28;20864;-81
2023/11/17 11:36:36;;;;;;;5.83;5.17;;;7.50;99.90;;;;;;5017573;28;20538;-81
2023/11/17 11:39:06;;;;;;;6.43;5.87;;;7.50;99.90;;;;;;5017707;28;20474;-81
2023/11/17 11:41:36;;;;;;;6.03;5.53;;;7.50;99.90;;;;;;5016711;28;20474;-81
2023/11/17 11:44:04;;;;;;;6.37;5.77;;;7.50;99.90;;;;;;5017063;28;20454;-81
2023/11/17 11:46:35;;;;;;;5.93;5.43;;;7.60;99.90;;;;;;5017175;28;20979;-80
2023/11/17 11:49:08;;;;;;;5.33;4.80;;;7.60;99.90;;;;;;5016687;28;20841;-81
2023/11/17 11:51:43;;;;;;;5.17;4.73;;;7.60;99.90;;;;;;5016814;28;20474;-83
2023/11/17 11:54:11;;;;;;;5.10;4.60;;;7.70;99.90;;;;;;5016344;28;20453;-81
2023/11/17 11:56:43;;;;;;;5.10;4.60;;;7.70;99.90;;;;;;5015930;28;20504;-81
2023/11/17 11:59:11;;;;;;;4.50;3.60;;;7.70;99.90;;;;;;5015351;28;20553;-81
2023/11/17 12:01:42;;;;;;;5.70;5.20;;;7.70;99.90;;;;;;5016491;28;20561;-81
2023/11/17 12:04:12;;;;;;;6.10;5.43;;;7.80;99.90;;;;;;5017420;28;20418;-81
2023/11/17 12:06:41;;;;;;;6.03;5.43;;;7.80;99.90;;;;;;5015739;28;20455;-81
2023/11/17 12:09:20;;;;;;;4.83;4.43;;;7.80;99.90;;;;;;5015360;28;20469;-81
2023/11/17 12:11:50;;;;;;;5.20;4.80;;;7.80;99.90;;;;;;5015216;28;20481;-81
2023/11/17 12:14:25;;;;;;;5.27;4.73;;;7.90;99.90;;;;;;5016319;28;20436;-80
2023/11/17 12:16:55;;;;;;;5.50;5.00;;;7.90;99.90;;;;;;5015363;28;20513;-80
2023/11/17 12:19:28;;;;;;;5.07;4.57;;;8.00;99.90;;;;;;5015350;28;20493;-81
2023/11/17 12:22:00;;;;;;;4.47;4.07;;;8.00;99.90;;;;;;5015468;28;20482;-81
2023/11/17 12:24:30;;;;;;;4.90;4.50;;;8.00;99.90;;;;;;5015500;28;20440;-81
2023/11/17 12:27:05;;;;;;;5.27;4.77;;;8.10;99.90;;;;;;5015771;28;20956;-80
2023/11/17 12:29:36;;;;;;;4.93;4.47;;;8.10;99.90;;;;;;5017220;28;20964;-80
2023/11/17 12:32:06;;;;;;;4.87;4.37;;;8.10;99.90;;;;;;5018855;28;20570;-80
2023/11/17 12:34:41;;;;;;;5.30;4.80;;;8.20;99.90;;;;;;5019877;28;20443;-80
2023/11/17 12:37:10;;;;;;;5.23;4.30;;;8.20;99.90;;;;;;5017925;28;20939;-80
2023/11/17 12:39:40;;;;;;;4.93;4.53;;;8.20;99.90;;;;;;5019818;28;20459;-80
2023/11/17 12:42:17;;;;;;;4.83;4.40;;;8.20;99.90;;;;;;5017890;28;20453;-81
2023/11/17 12:44:45;;;;;;;4.67;4.27;;;8.30;99.90;;;;;;5015661;28;20813;-80
2023/11/17 12:47:14;;;;;;;5.10;4.60;;;8.30;99.90;;;;;;5015410;28;20482;-81
2023/11/17 12:49:59;;;;;;;5.53;4.23;;;8.40;99.90;;;;;;5015088;28;20463;-80
2023/11/17 12:52:27;;;;;;;5.40;4.87;;;8.40;99.90;;;;;;5015013;28;20512;-81
2023/11/17 12:55:03;;;;;;;5.37;4.87;;;8.40;99.90;;;;;;5015309;28;20467;-81
2023/11/17 12:57:30;;;;;;;4.47;4.07;;;8.50;99.90;;;;;;5015696;28;20444;-81
2023/11/17 12:59:59;;;;;;;4.63;4.23;;;8.50;99.90;;;;;;5015480;28;20951;-81
2023/11/17 13:02:27;;;;;;;4.43;4.03;;;8.60;99.90;;;;;;5016666;28;20455;-81
2023/11/17 13:04:56;;;;;;;4.60;4.20;;;8.60;99.90;;;;;;5016193;28;20440;-81
2023/11/17 13:07:26;;;;;;;4.77;4.20;;;8.70;99.90;;;;;;5015583;28;20447;-82
2023/11/17 13:09:54;;;;;;;4.03;3.70;;;8.70;99.90;;;;;;5015325;28;20459;-81